Smitwijs London — PCBI — position and weather

sailwx.info

Track history (hours):
 
Tides and Currents Weather Stations Pressure Air Temp Water Temp Dewpoint Dewpoint Depression Visibility Wind Speed Wind Dir Waves Ship Positions

Smitwijs London

Last reported at 2015-Apr-19 18:34 UTC. Time now 2015-Apr-19 19:06 UTC.
Position N 51°20' E 003°49'.

Length 75 m; beam 16 m.

Type: Tug. MMSI: 244098956.

Date/timePositionNaut miles runAvg speedWind from/ knotsBaromVisibWave heightAir tempDewpointWater temp
2015-Apr-19 18:34N 51°20' E 003°49'0 0.0
2015-Apr-19 17:33N 51°20' E 003°49'0 0.0
2015-Apr-19 16:34N 51°20' E 003°49'0 0.0
2015-Apr-19 15:33N 51°20' E 003°49'0 0.0
2015-Apr-19 14:33N 51°20' E 003°49'0 0.0
2015-Apr-19 13:33N 51°20' E 003°49'0 0.0
2015-Apr-19 12:34N 51°20' E 003°49'0 0.0
2015-Apr-19 11:33N 51°20' E 003°49'0 0.0
2015-Apr-19 10:33N 51°20' E 003°49'0 0.0
2015-Apr-19 09:33N 51°20' E 003°49'0 0.0
2015-Apr-19 08:34N 51°20' E 003°49'0 0.0
2015-Apr-19 07:33N 51°20' E 003°49'0 0.0
2015-Apr-19 06:34N 51°20' E 003°49'0 0.0
2015-Apr-19 05:34N 51°20' E 003°49'0 0.0
2015-Apr-19 04:33N 51°20' E 003°49'0 0.2
2015-Apr-19 03:33N 51°20' E 003°49'8 8.4
2015-Apr-19 02:33N 51°12' E 003°48'3 3.1
2015-Apr-19 01:33N 51°09' E 003°47'4 4.2
2015-Apr-19 00:33N 51°13' E 003°48'6 5.5
2015-Apr-18 23:33N 51°18' E 003°50'2 1.8
2015-Apr-18 22:34N 51°20' E 003°49'3 3.3
2015-Apr-18 21:33N 51°22' E 003°44'3 3.2
2015-Apr-18 20:33N 51°20' E 003°49'0 0.0
2015-Apr-18 19:34N 51°20' E 003°49'0 0.0
2015-Apr-18 18:33N 51°20' E 003°49'0 0.0
2015-Apr-18 17:33N 51°20' E 003°49'0 0.0
2015-Apr-18 16:34N 51°20' E 003°49'0 0.0
2015-Apr-18 15:33N 51°20' E 003°49'0 0.0
2015-Apr-18 14:34N 51°20' E 003°49'0 0.0
2015-Apr-18 13:33N 51°20' E 003°49'0 0.0
2015-Apr-18 12:34N 51°20' E 003°49'0 0.0
2015-Apr-18 11:33N 51°20' E 003°49'0 0.0
2015-Apr-18 10:34N 51°20' E 003°49'0 0.0
2015-Apr-18 09:34N 51°20' E 003°49'0 0.0
2015-Apr-18 08:33N 51°20' E 003°49'0 0.0
2015-Apr-18 07:34N 51°20' E 003°49'0 0.0
2015-Apr-18 06:33N 51°20' E 003°49'0 0.0
2015-Apr-18 05:33N 51°20' E 003°49'0 0.0
2015-Apr-18 04:34N 51°20' E 003°49'0 0.0
2015-Apr-18 03:33N 51°20' E 003°49'0 0.0
2015-Apr-18 02:34N 51°20' E 003°49'0 0.0
2015-Apr-18 01:34N 51°20' E 003°49'0 0.0
2015-Apr-18 00:34N 51°20' E 003°49'0 0.0
2015-Apr-17 23:33N 51°20' E 003°49'0 0.0
2015-Apr-17 22:34N 51°20' E 003°49'0 0.0
2015-Apr-17 21:33N 51°20' E 003°49'0 0.0
2015-Apr-17 20:33N 51°20' E 003°49'0 0.0
2015-Apr-17 19:34N 51°20' E 003°49'0 0.0
2015-Apr-17 18:33N 51°20' E 003°49'0 0.0
2015-Apr-17 17:33N 51°20' E 003°49'1 0.6
2015-Apr-17 16:33N 51°20' E 003°49'3 3.4
2015-Apr-17 15:33N 51°16' E 003°50'4 3.9
2015-Apr-17 14:34N 51°13' E 003°48'3 3.4
2015-Apr-17 13:33N 51°09' E 003°47'0 0.0
2015-Apr-17 12:33N 51°09' E 003°47'8 8.3
2015-Apr-17 11:33N 51°17' E 003°50'2 2.3
2015-Apr-17 10:34N 51°20' E 003°49'0 0.0
2015-Apr-17 09:34N 51°20' E 003°49'0 0.0
2015-Apr-17 08:33N 51°20' E 003°49'0 0.0
2015-Apr-17 07:33N 51°20' E 003°49'0 0.0
2015-Apr-17 06:34N 51°20' E 003°49'0 0.0
2015-Apr-17 05:34N 51°20' E 003°49'0 0.1
2015-Apr-17 04:33N 51°20' E 003°49'1 0.6
2015-Apr-17 03:34N 51°20' E 003°49'1 0.6
2015-Apr-17 02:33N 51°20' E 003°49'3 3.3
2015-Apr-17 01:33N 51°17' E 003°51'2 2.5
2015-Apr-17 00:33N 51°19' E 003°50'1 1.4
2015-Apr-16 23:34N 51°20' E 003°49'0 0.0
2015-Apr-16 22:34N 51°20' E 003°49'0 0.0
2015-Apr-16 21:34N 51°20' E 003°49'0 0.0
2015-Apr-16 20:34N 51°20' E 003°49'0 0.0
2015-Apr-16 19:34N 51°20' E 003°49'0 0.0
2015-Apr-16 18:33N 51°20' E 003°49'0 0.0
2015-Apr-16 17:34N 51°20' E 003°49'0 0.0
2015-Apr-16 16:34N 51°20' E 003°49'0 0.0
2015-Apr-16 15:33N 51°20' E 003°49'0 0.0
2015-Apr-16 14:33N 51°20' E 003°49'0 0.0
2015-Apr-16 13:34N 51°20' E 003°49'0 0.0
2015-Apr-16 12:33N 51°20' E 003°49'0 0.0
2015-Apr-16 11:33N 51°20' E 003°49'0 0.0
2015-Apr-16 10:34N 51°20' E 003°49'3 2.8
2015-Apr-16 09:34N 51°22' E 003°45'3 2.8
2015-Apr-16 08:33N 51°20' E 003°49'0 0.0
2015-Apr-16 07:33N 51°20' E 003°49'0 0.0
2015-Apr-16 06:33N 51°20' E 003°49'0 0.0
2015-Apr-16 05:33N 51°20' E 003°49'0 0.0
2015-Apr-16 04:34N 51°20' E 003°49'2 1.6
2015-Apr-16 03:33N 51°21' E 003°47'7 7.2
2015-Apr-16 02:33N 51°27' E 003°40'1 1.1
2015-Apr-16 01:34N 51°26' E 003°41'2 1.5
2015-Apr-16 00:34N 51°28' E 003°40'0 0.0
2015-Apr-15 23:34N 51°28' E 003°40'0 0.0
2015-Apr-15 22:33N 51°28' E 003°40'0 0.0
2015-Apr-15 21:33N 51°28' E 003°40'0 0.0
2015-Apr-15 20:33N 51°28' E 003°40'0 0.0
2015-Apr-15 19:34N 51°28' E 003°40'2 1.5
2015-Apr-15 18:33N 51°26' E 003°41'2 2.1
2015-Apr-15 17:33N 51°25' E 003°44'3 3.2
2015-Apr-15 16:33N 51°27' E 003°40'0 0.1
2015-Apr-15 15:34N 51°27' E 003°40'0 0.3
2015-Apr-15 14:33N 51°28' E 003°40'0 0.0
2015-Apr-15 13:33N 51°28' E 003°40'1 1.5
2015-Apr-15 12:33N 51°27' E 003°42'1 1.5
2015-Apr-15 11:34N 51°28' E 003°40'0 0.0
2015-Apr-15 10:33N 51°28' E 003°40'0 0.0
2015-Apr-15 09:33N 51°28' E 003°40'0 0.0
2015-Apr-15 08:33N 51°28' E 003°40'0 0.0
2015-Apr-15 07:34N 51°28' E 003°40'0 0.0
2015-Apr-15 06:34N 51°28' E 003°40'0 0.0
2015-Apr-15 05:33N 51°28' E 003°40'0 0.0
2015-Apr-15 04:33N 51°28' E 003°40'0 0.0
2015-Apr-15 03:33N 51°28' E 003°40'0 0.0
2015-Apr-15 02:33N 51°28' E 003°40'0 0.0
2015-Apr-15 01:33N 51°28' E 003°40'2 1.5
2015-Apr-15 00:33N 51°27' E 003°42'0 0.1
2015-Apr-14 23:33N 51°27' E 003°42'1 1.2
2015-Apr-14 22:33N 51°27' E 003°41'0 0.3
2015-Apr-14 21:33N 51°27' E 003°40'1 0.5
2015-Apr-14 20:34N 51°28' E 003°40'0 0.0
2015-Apr-14 19:34N 51°28' E 003°40'0 0.0
2015-Apr-14 18:33N 51°28' E 003°40'0 0.0
2015-Apr-14 17:34N 51°28' E 003°40'0 0.4
2015-Apr-14 16:33N 51°27' E 003°40'1 1.1
2015-Apr-14 15:33N 51°28' E 003°42'1 0.7
2015-Apr-14 14:34N 51°28' E 003°42'1 1.3
2015-Apr-14 13:33N 51°27' E 003°43'2 1.8
2015-Apr-14 12:33N 51°28' E 003°40'0 0.0
2015-Apr-14 11:34N 51°28' E 003°40'0 0.0
2015-Apr-14 10:33N 51°28' E 003°40'1 1.4
2015-Apr-14 09:33N 51°28' E 003°42'0 0.0
2015-Apr-14 08:33N 51°28' E 003°42'0 0.0
2015-Apr-14 07:33N 51°28' E 003°42'0 0.0
2015-Apr-14 06:33N 51°28' E 003°42'0 0.0
2015-Apr-14 05:33N 51°28' E 003°42'0 0.0
2015-Apr-14 04:33N 51°28' E 003°42'0 0.0
2015-Apr-14 03:33N 51°28' E 003°42'0 0.0
2015-Apr-14 02:33N 51°28' E 003°42'0 0.1
2015-Apr-14 01:33N 51°28' E 003°43'1 1.5
2015-Apr-14 00:33N 51°28' E 003°40'0 0.0
2015-Apr-13 23:34N 51°28' E 003°40'0 0.0
2015-Apr-13 22:33N 51°28' E 003°40'2 1.8
2015-Apr-13 21:33N 51°27' E 003°43'2 1.8
2015-Apr-13 20:34N 51°28' E 003°40'0 0.0
2015-Apr-13 19:34N 51°28' E 003°40'0 0.0
2015-Apr-13 18:33N 51°28' E 003°40'0 0.2
2015-Apr-13 17:34N 51°27' E 003°41'2 1.6
2015-Apr-13 16:33N 51°27' E 003°43'0 0.0
2015-Apr-13 15:33N 51°27' E 003°43'0 0.0
2015-Apr-13 14:33N 51°27' E 003°43'0 0.0
2015-Apr-13 13:33N 51°27' E 003°43'1 1.1
2015-Apr-13 12:33N 51°28' E 003°42'0 0.0
2015-Apr-13 11:33N 51°28' E 003°42'0 0.0
2015-Apr-13 10:33N 51°28' E 003°42'0 0.0
2015-Apr-13 09:33N 51°28' E 003°42'0 0.0
2015-Apr-13 08:33N 51°28' E 003°42'0 0.0
2015-Apr-13 07:33N 51°28' E 003°42'0 0.0
2015-Apr-13 06:33N 51°28' E 003°42'0 0.0
2015-Apr-13 05:33N 51°28' E 003°42'0 0.0
2015-Apr-13 04:33N 51°28' E 003°42'0 0.0
2015-Apr-13 03:33N 51°28' E 003°42'0 0.0
2015-Apr-13 02:33N 51°28' E 003°42'0 0.0
2015-Apr-13 01:33N 51°28' E 003°42'0 0.0
2015-Apr-13 00:33N 51°28' E 003°42'0 0.0
2015-Apr-12 23:33N 51°28' E 003°42'3 3.2
2015-Apr-12 22:33N 51°25' E 003°43'1 0.7
2015-Apr-12 21:33N 51°25' E 003°43'1 1.4
2015-Apr-12 20:33N 51°23' E 003°43'5 5.1
2015-Apr-12 19:34N 51°21' E 003°50'1 1.1
2015-Apr-12 18:33N 51°21' E 003°52'5 5.4
2015-Apr-12 17:33N 51°22' E 003°44'6 5.7
2015-Apr-12 16:34N 51°28' E 003°42'1 1.4
2015-Apr-12 15:33N 51°27' E 003°40'2 2.2
2015-Apr-12 14:33N 51°29' E 003°42'2 1.9
2015-Apr-12 13:33N 51°27' E 003°40'1 0.5
2015-Apr-12 12:34N 51°28' E 003°40'0 0.0
2015-Apr-12 11:34N 51°28' E 003°40'0 0.0
2015-Apr-12 10:33N 51°28' E 003°40'0 0.0
2015-Apr-12 09:33N 51°28' E 003°40'0 0.0
2015-Apr-12 08:33N 51°28' E 003°40'0 0.0
2015-Apr-12 07:33N 51°28' E 003°40'0 0.0
2015-Apr-12 06:33N 51°28' E 003°40'0 0.0
2015-Apr-12 05:33N 51°28' E 003°40'0 0.0
2015-Apr-12 04:33N 51°28' E 003°40'0 0.0
2015-Apr-12 03:33N 51°28' E 003°40'0 0.0
2015-Apr-12 02:33N 51°28' E 003°40'0 0.0
2015-Apr-12 01:33N 51°28' E 003°40'0 0.0
2015-Apr-12 00:33N 51°28' E 003°40'0 0.0
2015-Apr-11 23:33N 51°28' E 003°40'0 0.0
2015-Apr-11 22:33N 51°28' E 003°40'0 0.0
2015-Apr-11 21:33N 51°28' E 003°40'1 0.7
2015-Apr-11 20:34N 51°27' E 003°42'1 0.7
2015-Apr-11 19:33N 51°27' E 003°43'3 2.7
2015-Apr-11 18:34N 51°26' E 003°38'2 1.7
2015-Apr-11 17:34N 51°28' E 003°40'0 0.0
2015-Apr-11 16:33N 51°28' E 003°40'0 0.0
2015-Apr-11 15:33N 51°28' E 003°40'0 0.0
2015-Apr-11 14:33N 51°28' E 003°40'0 0.0
2015-Apr-11 13:33N 51°28' E 003°40'0 0.0
2015-Apr-11 12:33N 51°28' E 003°40'0 0.0
2015-Apr-11 11:34N 51°28' E 003°40'0 0.0
2015-Apr-11 10:33N 51°28' E 003°40'0 0.0
2015-Apr-11 09:33N 51°28' E 003°40'0 0.0
2015-Apr-11 08:33N 51°28' E 003°40'0 0.0
2015-Apr-11 07:33N 51°28' E 003°40'0 0.0
2015-Apr-11 06:33N 51°28' E 003°40'0 0.0
2015-Apr-11 05:33N 51°28' E 003°40'0 0.0
2015-Apr-11 04:33N 51°28' E 003°40'0 0.0
2015-Apr-11 03:33N 51°28' E 003°40'0 0.0
2015-Apr-11 02:33N 51°28' E 003°40'0 0.0
2015-Apr-11 01:34N 51°28' E 003°40'1 0.5
2015-Apr-11 00:33N 51°27' E 003°40'1 0.5
2015-Apr-10 23:34N 51°28' E 003°40'1 0.5
2015-Apr-10 22:33N 51°28' E 003°41'1 0.5
2015-Apr-10 21:33N 51°28' E 003°40'0 0.0
2015-Apr-10 20:33N 51°28' E 003°40'0 0.0
2015-Apr-10 19:33N 51°28' E 003°40'0 0.0
2015-Apr-10 18:33N 51°28' E 003°40'2 1.5
2015-Apr-10 17:33N 51°29' E 003°42'2 1.5
2015-Apr-10 16:33N 51°28' E 003°40'0 0.0
2015-Apr-10 15:33N 51°28' E 003°40'0 0.0
2015-Apr-10 14:34N 51°28' E 003°40'0 0.4
2015-Apr-10 13:34N 51°27' E 003°40'4 4.4
2015-Apr-10 12:33N 51°23' E 003°43'3 3.3
2015-Apr-10 11:34N 51°20' E 003°46'6 6.3
2015-Apr-10 10:33N 51°26' E 003°41'2 1.8
2015-Apr-10 09:33N 51°28' E 003°40'0 0.0
2015-Apr-10 08:33N 51°28' E 003°40'0 0.0
2015-Apr-10 07:33N 51°28' E 003°40'0 0.0
2015-Apr-10 06:33N 51°28' E 003°40'0 0.0
2015-Apr-10 05:34N 51°28' E 003°40'0 0.0
2015-Apr-10 04:33N 51°28' E 003°40'0 0.0
2015-Apr-10 03:33N 51°28' E 003°40'0 0.0
2015-Apr-10 02:33N 51°28' E 003°40'0 0.0
2015-Apr-10 01:33N 51°28' E 003°40'0 0.0
2015-Apr-10 00:33N 51°28' E 003°40'0 0.0
2015-Apr-09 23:33N 51°28' E 003°40'2 1.6
2015-Apr-09 22:33N 51°27' E 003°43'0 0.4
2015-Apr-09 21:33N 51°27' E 003°43'0 0.0
2015-Apr-09 20:33N 51°27' E 003°43'1 1.0
2015-Apr-09 19:33N 51°27' E 003°42'0 0.3
2015-Apr-09 18:34N 51°27' E 003°42'  
Track history (hours):
 
Tides and Currents Weather Stations Pressure Air Temp Water Temp Dewpoint Dewpoint Depression Visibility Wind Speed Wind Dir Waves Ship Positions

Smitwijs London

Last reported at 2015-Apr-19 18:34 UTC. Time now 2015-Apr-19 19:06 UTC.
Position N 51°20' E 003°49'.

Length 75 m; beam 16 m.

Type: Tug. MMSI: 244098956.

Date/timePositionNaut miles runAvg speedWind from/ knotsBaromVisibWave heightAir tempDewpointWater temp
2015-Apr-19 18:34N 51°20' E 003°49'0 0.0
2015-Apr-19 17:33N 51°20' E 003°49'0 0.0
2015-Apr-19 16:34N 51°20' E 003°49'0 0.0
2015-Apr-19 15:33N 51°20' E 003°49'0 0.0
2015-Apr-19 14:33N 51°20' E 003°49'0 0.0
2015-Apr-19 13:33N 51°20' E 003°49'0 0.0
2015-Apr-19 12:34N 51°20' E 003°49'0 0.0
2015-Apr-19 11:33N 51°20' E 003°49'0 0.0
2015-Apr-19 10:33N 51°20' E 003°49'0 0.0
2015-Apr-19 09:33N 51°20' E 003°49'0 0.0
2015-Apr-19 08:34N 51°20' E 003°49'0 0.0
2015-Apr-19 07:33N 51°20' E 003°49'0 0.0
2015-Apr-19 06:34N 51°20' E 003°49'0 0.0
2015-Apr-19 05:34N 51°20' E 003°49'0 0.0
2015-Apr-19 04:33N 51°20' E 003°49'0 0.2
2015-Apr-19 03:33N 51°20' E 003°49'8 8.4
2015-Apr-19 02:33N 51°12' E 003°48'3 3.1
2015-Apr-19 01:33N 51°09' E 003°47'4 4.2
2015-Apr-19 00:33N 51°13' E 003°48'6 5.5
2015-Apr-18 23:33N 51°18' E 003°50'2 1.8
2015-Apr-18 22:34N 51°20' E 003°49'3 3.3
2015-Apr-18 21:33N 51°22' E 003°44'3 3.2
2015-Apr-18 20:33N 51°20' E 003°49'0 0.0
2015-Apr-18 19:34N 51°20' E 003°49'0 0.0
2015-Apr-18 18:33N 51°20' E 003°49'0 0.0
2015-Apr-18 17:33N 51°20' E 003°49'0 0.0
2015-Apr-18 16:34N 51°20' E 003°49'0 0.0
2015-Apr-18 15:33N 51°20' E 003°49'0 0.0
2015-Apr-18 14:34N 51°20' E 003°49'0 0.0
2015-Apr-18 13:33N 51°20' E 003°49'0 0.0
2015-Apr-18 12:34N 51°20' E 003°49'0 0.0
2015-Apr-18 11:33N 51°20' E 003°49'0 0.0
2015-Apr-18 10:34N 51°20' E 003°49'0 0.0
2015-Apr-18 09:34N 51°20' E 003°49'0 0.0
2015-Apr-18 08:33N 51°20' E 003°49'0 0.0
2015-Apr-18 07:34N 51°20' E 003°49'0 0.0
2015-Apr-18 06:33N 51°20' E 003°49'0 0.0
2015-Apr-18 05:33N 51°20' E 003°49'0 0.0
2015-Apr-18 04:34N 51°20' E 003°49'0 0.0
2015-Apr-18 03:33N 51°20' E 003°49'0 0.0
2015-Apr-18 02:34N 51°20' E 003°49'0 0.0
2015-Apr-18 01:34N 51°20' E 003°49'0 0.0
2015-Apr-18 00:34N 51°20' E 003°49'0 0.0
2015-Apr-17 23:33N 51°20' E 003°49'0 0.0
2015-Apr-17 22:34N 51°20' E 003°49'0 0.0
2015-Apr-17 21:33N 51°20' E 003°49'0 0.0
2015-Apr-17 20:33N 51°20' E 003°49'0 0.0
2015-Apr-17 19:34N 51°20' E 003°49'0 0.0
2015-Apr-17 18:33N 51°20' E 003°49'0 0.0
2015-Apr-17 17:33N 51°20' E 003°49'1 0.6
2015-Apr-17 16:33N 51°20' E 003°49'3 3.4
2015-Apr-17 15:33N 51°16' E 003°50'4 3.9
2015-Apr-17 14:34N 51°13' E 003°48'3 3.4
2015-Apr-17 13:33N 51°09' E 003°47'0 0.0
2015-Apr-17 12:33N 51°09' E 003°47'8 8.3
2015-Apr-17 11:33N 51°17' E 003°50'2 2.3
2015-Apr-17 10:34N 51°20' E 003°49'0 0.0
2015-Apr-17 09:34N 51°20' E 003°49'0 0.0
2015-Apr-17 08:33N 51°20' E 003°49'0 0.0
2015-Apr-17 07:33N 51°20' E 003°49'0 0.0
2015-Apr-17 06:34N 51°20' E 003°49'0 0.0
2015-Apr-17 05:34N 51°20' E 003°49'0 0.1
2015-Apr-17 04:33N 51°20' E 003°49'1 0.6
2015-Apr-17 03:34N 51°20' E 003°49'1 0.6
2015-Apr-17 02:33N 51°20' E 003°49'3 3.3
2015-Apr-17 01:33N 51°17' E 003°51'2 2.5
2015-Apr-17 00:33N 51°19' E 003°50'1 1.4
2015-Apr-16 23:34N 51°20' E 003°49'0 0.0
2015-Apr-16 22:34N 51°20' E 003°49'0 0.0
2015-Apr-16 21:34N 51°20' E 003°49'0 0.0
2015-Apr-16 20:34N 51°20' E 003°49'0 0.0
2015-Apr-16 19:34N 51°20' E 003°49'0 0.0
2015-Apr-16 18:33N 51°20' E 003°49'0 0.0
2015-Apr-16 17:34N 51°20' E 003°49'0 0.0
2015-Apr-16 16:34N 51°20' E 003°49'0 0.0
2015-Apr-16 15:33N 51°20' E 003°49'0 0.0
2015-Apr-16 14:33N 51°20' E 003°49'0 0.0
2015-Apr-16 13:34N 51°20' E 003°49'0 0.0
2015-Apr-16 12:33N 51°20' E 003°49'0 0.0
2015-Apr-16 11:33N 51°20' E 003°49'0 0.0
2015-Apr-16 10:34N 51°20' E 003°49'3 2.8
2015-Apr-16 09:34N 51°22' E 003°45'3 2.8
2015-Apr-16 08:33N 51°20' E 003°49'0 0.0
2015-Apr-16 07:33N 51°20' E 003°49'0 0.0
2015-Apr-16 06:33N 51°20' E 003°49'0 0.0
2015-Apr-16 05:33N 51°20' E 003°49'0 0.0
2015-Apr-16 04:34N 51°20' E 003°49'2 1.6
2015-Apr-16 03:33N 51°21' E 003°47'7 7.2
2015-Apr-16 02:33N 51°27' E 003°40'1 1.1
2015-Apr-16 01:34N 51°26' E 003°41'2 1.5
2015-Apr-16 00:34N 51°28' E 003°40'0 0.0
2015-Apr-15 23:34N 51°28' E 003°40'0 0.0
2015-Apr-15 22:33N 51°28' E 003°40'0 0.0
2015-Apr-15 21:33N 51°28' E 003°40'0 0.0
2015-Apr-15 20:33N 51°28' E 003°40'0 0.0
2015-Apr-15 19:34N 51°28' E 003°40'2 1.5
2015-Apr-15 18:33N 51°26' E 003°41'2 2.1
2015-Apr-15 17:33N 51°25' E 003°44'3 3.2
2015-Apr-15 16:33N 51°27' E 003°40'0 0.1
2015-Apr-15 15:34N 51°27' E 003°40'0 0.3
2015-Apr-15 14:33N 51°28' E 003°40'0 0.0
2015-Apr-15 13:33N 51°28' E 003°40'1 1.5
2015-Apr-15 12:33N 51°27' E 003°42'1 1.5
2015-Apr-15 11:34N 51°28' E 003°40'0 0.0
2015-Apr-15 10:33N 51°28' E 003°40'0 0.0
2015-Apr-15 09:33N 51°28' E 003°40'0 0.0
2015-Apr-15 08:33N 51°28' E 003°40'0 0.0
2015-Apr-15 07:34N 51°28' E 003°40'0 0.0
2015-Apr-15 06:34N 51°28' E 003°40'0 0.0
2015-Apr-15 05:33N 51°28' E 003°40'0 0.0
2015-Apr-15 04:33N 51°28' E 003°40'0 0.0
2015-Apr-15 03:33N 51°28' E 003°40'0 0.0
2015-Apr-15 02:33N 51°28' E 003°40'0 0.0
2015-Apr-15 01:33N 51°28' E 003°40'2 1.5
2015-Apr-15 00:33N 51°27' E 003°42'0 0.1
2015-Apr-14 23:33N 51°27' E 003°42'1 1.2
2015-Apr-14 22:33N 51°27' E 003°41'0 0.3
2015-Apr-14 21:33N 51°27' E 003°40'1 0.5
2015-Apr-14 20:34N 51°28' E 003°40'0 0.0
2015-Apr-14 19:34N 51°28' E 003°40'0 0.0
2015-Apr-14 18:33N 51°28' E 003°40'0 0.0
2015-Apr-14 17:34N 51°28' E 003°40'0 0.4
2015-Apr-14 16:33N 51°27' E 003°40'1 1.1
2015-Apr-14 15:33N 51°28' E 003°42'1 0.7
2015-Apr-14 14:34N 51°28' E 003°42'1 1.3
2015-Apr-14 13:33N 51°27' E 003°43'2 1.8
2015-Apr-14 12:33N 51°28' E 003°40'0 0.0
2015-Apr-14 11:34N 51°28' E 003°40'0 0.0
2015-Apr-14 10:33N 51°28' E 003°40'1 1.4
2015-Apr-14 09:33N 51°28' E 003°42'0 0.0
2015-Apr-14 08:33N 51°28' E 003°42'0 0.0
2015-Apr-14 07:33N 51°28' E 003°42'0 0.0
2015-Apr-14 06:33N 51°28' E 003°42'0 0.0
2015-Apr-14 05:33N 51°28' E 003°42'0 0.0
2015-Apr-14 04:33N 51°28' E 003°42'0 0.0
2015-Apr-14 03:33N 51°28' E 003°42'0 0.0
2015-Apr-14 02:33N 51°28' E 003°42'0 0.1
2015-Apr-14 01:33N 51°28' E 003°43'1 1.5
2015-Apr-14 00:33N 51°28' E 003°40'0 0.0
2015-Apr-13 23:34N 51°28' E 003°40'0 0.0
2015-Apr-13 22:33N 51°28' E 003°40'2 1.8
2015-Apr-13 21:33N 51°27' E 003°43'2 1.8
2015-Apr-13 20:34N 51°28' E 003°40'0 0.0
2015-Apr-13 19:34N 51°28' E 003°40'0 0.0
2015-Apr-13 18:33N 51°28' E 003°40'0 0.2
2015-Apr-13 17:34N 51°27' E 003°41'2 1.6
2015-Apr-13 16:33N 51°27' E 003°43'0 0.0
2015-Apr-13 15:33N 51°27' E 003°43'0 0.0
2015-Apr-13 14:33N 51°27' E 003°43'0 0.0
2015-Apr-13 13:33N 51°27' E 003°43'1 1.1
2015-Apr-13 12:33N 51°28' E 003°42'0 0.0
2015-Apr-13 11:33N 51°28' E 003°42'0 0.0
2015-Apr-13 10:33N 51°28' E 003°42'0 0.0
2015-Apr-13 09:33N 51°28' E 003°42'0 0.0
2015-Apr-13 08:33N 51°28' E 003°42'0 0.0
2015-Apr-13 07:33N 51°28' E 003°42'0 0.0
2015-Apr-13 06:33N 51°28' E 003°42'0 0.0
2015-Apr-13 05:33N 51°28' E 003°42'0 0.0
2015-Apr-13 04:33N 51°28' E 003°42'0 0.0
2015-Apr-13 03:33N 51°28' E 003°42'0 0.0
2015-Apr-13 02:33N 51°28' E 003°42'0 0.0
2015-Apr-13 01:33N 51°28' E 003°42'0 0.0
2015-Apr-13 00:33N 51°28' E 003°42'0 0.0
2015-Apr-12 23:33N 51°28' E 003°42'3 3.2
2015-Apr-12 22:33N 51°25' E 003°43'1 0.7
2015-Apr-12 21:33N 51°25' E 003°43'1 1.4
2015-Apr-12 20:33N 51°23' E 003°43'5 5.1
2015-Apr-12 19:34N 51°21' E 003°50'1 1.1
2015-Apr-12 18:33N 51°21' E 003°52'5 5.4
2015-Apr-12 17:33N 51°22' E 003°44'6 5.7
2015-Apr-12 16:34N 51°28' E 003°42'1 1.4
2015-Apr-12 15:33N 51°27' E 003°40'2 2.2
2015-Apr-12 14:33N 51°29' E 003°42'2 1.9
2015-Apr-12 13:33N 51°27' E 003°40'1 0.5
2015-Apr-12 12:34N 51°28' E 003°40'0 0.0
2015-Apr-12 11:34N 51°28' E 003°40'0 0.0
2015-Apr-12 10:33N 51°28' E 003°40'0 0.0
2015-Apr-12 09:33N 51°28' E 003°40'0 0.0
2015-Apr-12 08:33N 51°28' E 003°40'0 0.0
2015-Apr-12 07:33N 51°28' E 003°40'0 0.0
2015-Apr-12 06:33N 51°28' E 003°40'0 0.0
2015-Apr-12 05:33N 51°28' E 003°40'0 0.0
2015-Apr-12 04:33N 51°28' E 003°40'0 0.0
2015-Apr-12 03:33N 51°28' E 003°40'0 0.0
2015-Apr-12 02:33N 51°28' E 003°40'0 0.0
2015-Apr-12 01:33N 51°28' E 003°40'0 0.0
2015-Apr-12 00:33N 51°28' E 003°40'0 0.0
2015-Apr-11 23:33N 51°28' E 003°40'0 0.0
2015-Apr-11 22:33N 51°28' E 003°40'0 0.0
2015-Apr-11 21:33N 51°28' E 003°40'1 0.7
2015-Apr-11 20:34N 51°27' E 003°42'1 0.7
2015-Apr-11 19:33N 51°27' E 003°43'3 2.7
2015-Apr-11 18:34N 51°26' E 003°38'2 1.7
2015-Apr-11 17:34N 51°28' E 003°40'0 0.0
2015-Apr-11 16:33N 51°28' E 003°40'0 0.0
2015-Apr-11 15:33N 51°28' E 003°40'0 0.0
2015-Apr-11 14:33N 51°28' E 003°40'0 0.0
2015-Apr-11 13:33N 51°28' E 003°40'0 0.0
2015-Apr-11 12:33N 51°28' E 003°40'0 0.0
2015-Apr-11 11:34N 51°28' E 003°40'0 0.0
2015-Apr-11 10:33N 51°28' E 003°40'0 0.0
2015-Apr-11 09:33N 51°28' E 003°40'0 0.0
2015-Apr-11 08:33N 51°28' E 003°40'0 0.0
2015-Apr-11 07:33N 51°28' E 003°40'0 0.0
2015-Apr-11 06:33N 51°28' E 003°40'0 0.0
2015-Apr-11 05:33N 51°28' E 003°40'0 0.0
2015-Apr-11 04:33N 51°28' E 003°40'0 0.0
2015-Apr-11 03:33N 51°28' E 003°40'0 0.0
2015-Apr-11 02:33N 51°28' E 003°40'0 0.0
2015-Apr-11 01:34N 51°28' E 003°40'1 0.5
2015-Apr-11 00:33N 51°27' E 003°40'1 0.5
2015-Apr-10 23:34N 51°28' E 003°40'1 0.5
2015-Apr-10 22:33N 51°28' E 003°41'1 0.5
2015-Apr-10 21:33N 51°28' E 003°40'0 0.0
2015-Apr-10 20:33N 51°28' E 003°40'0 0.0
2015-Apr-10 19:33N 51°28' E 003°40'0 0.0
2015-Apr-10 18:33N 51°28' E 003°40'2 1.5
2015-Apr-10 17:33N 51°29' E 003°42'2 1.5
2015-Apr-10 16:33N 51°28' E 003°40'0 0.0
2015-Apr-10 15:33N 51°28' E 003°40'0 0.0
2015-Apr-10 14:34N 51°28' E 003°40'0 0.4
2015-Apr-10 13:34N 51°27' E 003°40'4 4.4
2015-Apr-10 12:33N 51°23' E 003°43'3 3.3
2015-Apr-10 11:34N 51°20' E 003°46'6 6.3
2015-Apr-10 10:33N 51°26' E 003°41'2 1.8
2015-Apr-10 09:33N 51°28' E 003°40'0 0.0
2015-Apr-10 08:33N 51°28' E 003°40'0 0.0
2015-Apr-10 07:33N 51°28' E 003°40'0 0.0
2015-Apr-10 06:33N 51°28' E 003°40'0 0.0
2015-Apr-10 05:34N 51°28' E 003°40'0 0.0
2015-Apr-10 04:33N 51°28' E 003°40'0 0.0
2015-Apr-10 03:33N 51°28' E 003°40'0 0.0
2015-Apr-10 02:33N 51°28' E 003°40'0 0.0
2015-Apr-10 01:33N 51°28' E 003°40'0 0.0
2015-Apr-10 00:33N 51°28' E 003°40'0 0.0
2015-Apr-09 23:33N 51°28' E 003°40'2 1.6
2015-Apr-09 22:33N 51°27' E 003°43'0 0.4
2015-Apr-09 21:33N 51°27' E 003°43'0 0.0
2015-Apr-09 20:33N 51°27' E 003°43'1 1.0
2015-Apr-09 19:33N 51°27' E 003°42'0 0.3
2015-Apr-09 18:34N 51°27' E 003°42'  

Dump ship's entire track history